createdAt,value
2023-01-12T00:01:57.977Z,99.90
2023-01-12T00:06:59.952Z,99.90
2023-01-12T00:12:06.642Z,99.90
2023-01-12T00:17:09.232Z,99.90
2023-01-12T00:22:12.587Z,99.90
2023-01-12T00:27:17.353Z,99.90
2023-01-12T00:32:20.644Z,99.90
2023-01-12T00:37:22.878Z,99.90
2023-01-12T00:42:43.415Z,99.90
2023-01-12T00:47:45.255Z,99.90
2023-01-12T00:52:47.194Z,99.90
2023-01-12T00:57:49.079Z,99.90
2023-01-12T01:02:51.034Z,99.90
2023-01-12T01:07:52.914Z,99.90
2023-01-12T01:12:54.750Z,99.90
2023-01-12T01:17:56.569Z,99.90
2023-01-12T01:22:58.430Z,99.90
2023-01-12T01:28:00.268Z,99.90
2023-01-12T01:33:11.382Z,99.90
2023-01-12T01:38:13.272Z,99.90
2023-01-12T01:43:16.700Z,99.90
2023-01-12T01:48:18.622Z,99.90
2023-01-12T01:53:23.840Z,99.90
2023-01-12T01:59:03.177Z,99.90
2023-01-12T02:04:06.295Z,99.90
2023-01-12T02:09:18.955Z,99.90
2023-01-12T02:14:39.301Z,99.90
2023-01-12T02:20:18.081Z,99.90
2023-01-12T02:25:42.929Z,99.90
2023-01-12T02:31:09.631Z,99.90
2023-01-12T02:36:31.775Z,99.90
2023-01-12T02:42:12.972Z,99.90
2023-01-12T02:47:18.591Z,99.90
2023-01-12T02:52:24.440Z,99.90
2023-01-12T02:57:26.929Z,99.90
2023-01-12T03:02:29.425Z,99.90
2023-01-12T03:07:33.391Z,99.90
2023-01-12T03:12:36.986Z,99.90
2023-01-12T03:18:34.438Z,99.90
2023-01-12T03:23:47.244Z,99.90
2023-01-12T03:28:53.618Z,99.90
2023-01-12T03:33:55.737Z,99.90
2023-01-12T03:39:25.977Z,99.90
2023-01-12T03:44:54.368Z,99.90
2023-01-12T03:50:14.819Z,99.90
2023-01-12T03:55:18.545Z,99.90
2023-01-12T04:00:21.270Z,99.90
2023-01-12T04:05:23.103Z,99.90
2023-01-12T04:10:24.939Z,99.90
2023-01-12T04:15:27.067Z,99.90
2023-01-12T04:20:28.900Z,99.90
2023-01-12T04:25:31.385Z,99.90
2023-01-12T04:30:34.163Z,99.90
2023-01-12T04:35:35.995Z,99.90
2023-01-12T04:40:37.826Z,99.90
2023-01-12T04:45:41.520Z,99.90
2023-01-12T04:50:44.574Z,99.90
2023-01-12T04:55:46.420Z,99.90
2023-01-12T05:00:48.473Z,99.90
2023-01-12T05:05:50.305Z,99.90
2023-01-12T05:10:56.173Z,99.90
2023-01-12T05:16:11.303Z,99.90
2023-01-12T05:21:15.612Z,99.90
2023-01-12T05:26:17.492Z,99.90
2023-01-12T05:31:20.085Z,99.90
2023-01-12T05:36:21.957Z,99.90
2023-01-12T05:41:23.977Z,99.90
2023-01-12T05:46:30.685Z,99.90
2023-01-12T05:51:33.603Z,99.90
2023-01-12T05:56:35.455Z,99.90
2023-01-12T06:01:38.666Z,99.90
2023-01-12T06:06:40.547Z,99.90
2023-01-12T06:12:01.035Z,99.90
2023-01-12T06:17:02.858Z,99.90
2023-01-12T06:22:04.707Z,99.90
2023-01-12T06:27:06.671Z,99.90
2023-01-12T06:32:08.796Z,99.90
2023-01-12T06:37:13.033Z,99.90
2023-01-12T06:42:30.006Z,99.90
2023-01-12T06:47:31.946Z,99.90
2023-01-12T06:52:33.802Z,99.90
2023-01-12T06:57:35.952Z,99.90
2023-01-12T07:02:37.862Z,99.90
2023-01-12T07:07:40.496Z,99.90
2023-01-12T07:12:42.541Z,99.90
2023-01-12T07:17:44.412Z,99.90
2023-01-12T07:22:46.238Z,99.90
2023-01-12T07:27:52.042Z,99.90
2023-01-12T07:32:54.192Z,99.90
2023-01-12T07:37:55.994Z,99.90
2023-01-12T07:43:00.966Z,99.90
2023-01-12T07:48:02.890Z,99.90
2023-01-12T07:53:04.694Z,99.90
2023-01-12T07:58:07.255Z,99.90
2023-01-12T08:03:11.719Z,99.90
2023-01-12T08:08:13.568Z,99.90
2023-01-12T08:13:15.814Z,99.90
2023-01-12T08:18:24.151Z,99.90
2023-01-12T08:23:41.841Z,99.90
2023-01-12T08:28:47.572Z,99.90
2023-01-12T08:33:53.489Z,98.10
2023-01-12T08:38:56.055Z,97.70
2023-01-12T08:44:06.091Z,97.10
2023-01-12T08:49:09.727Z,96.70
2023-01-12T08:54:12.727Z,94.90
2023-01-12T08:59:14.623Z,94.50
2023-01-12T09:04:16.561Z,93.70
2023-01-12T09:09:20.197Z,92.80
2023-01-12T09:14:22.011Z,91.60
2023-01-12T09:19:26.739Z,92.10
2023-01-12T09:24:28.602Z,91.40
2023-01-12T09:29:30.419Z,91.00
2023-01-12T09:34:32.232Z,91.00
2023-01-12T09:39:34.113Z,90.40
2023-01-12T09:44:56.790Z,90.10
2023-01-12T09:50:22.089Z,89.70
2023-01-12T09:55:29.830Z,88.70
2023-01-12T10:00:32.317Z,89.40
2023-01-12T10:05:40.715Z,87.00
2023-01-12T10:10:51.532Z,85.10
2023-01-12T10:15:57.841Z,85.10
2023-01-12T10:21:00.063Z,86.40
2023-01-12T10:26:04.979Z,86.20
2023-01-12T10:31:11.745Z,86.20
2023-01-12T10:36:18.627Z,85.80
2023-01-12T10:41:22.104Z,84.70
2023-01-12T10:46:26.980Z,83.90
2023-01-12T10:51:34.909Z,83.70
2023-01-12T10:56:39.372Z,82.00
2023-01-12T11:01:46.397Z,80.80
2023-01-12T11:07:02.245Z,81.30
2023-01-12T11:12:19.188Z,81.40
2023-01-12T11:17:49.768Z,79.90
2023-01-12T11:22:55.440Z,80.60
2023-01-12T11:28:02.248Z,80.40
2023-01-12T11:33:11.220Z,80.20
2023-01-12T11:38:19.223Z,81.70
2023-01-12T11:43:47.167Z,81.20
2023-01-12T11:49:01.531Z,80.70
2023-01-12T11:54:05.402Z,78.70
2023-01-12T11:59:14.830Z,79.20
2023-01-12T12:04:35.420Z,79.10
2023-01-12T12:10:23.758Z,79.60
2023-01-12T12:15:49.942Z,79.60
2023-01-12T12:21:04.041Z,79.50
2023-01-12T12:26:39.007Z,79.30
2023-01-12T12:31:49.600Z,79.20
2023-01-12T12:37:28.955Z,79.00
2023-01-12T12:42:54.795Z,79.10
2023-01-12T12:48:16.224Z,78.60
2023-01-12T12:53:21.045Z,78.50
2023-01-12T12:58:22.774Z,79.90
2023-01-12T13:03:39.814Z,79.70
2023-01-12T13:08:41.900Z,78.20
2023-01-12T13:14:25.513Z,78.70
2023-01-12T13:19:33.249Z,78.90
2023-01-12T13:24:41.891Z,80.00
2023-01-12T13:29:45.117Z,80.50
2023-01-12T13:34:46.922Z,80.70
2023-01-12T13:40:02.163Z,81.10
2023-01-12T13:45:04.326Z,81.80
2023-01-12T13:50:06.537Z,81.40
2023-01-12T13:55:23.433Z,80.60
2023-01-12T14:00:25.663Z,80.70
2023-01-12T14:05:48.831Z,81.40
2023-01-12T14:10:59.943Z,82.30
2023-01-12T14:16:31.167Z,82.10
2023-01-12T14:21:37.779Z,82.30
2023-01-12T14:26:39.551Z,82.90
2023-01-12T14:31:54.089Z,82.10
2023-01-12T14:36:56.344Z,82.20
2023-01-12T14:42:16.924Z,82.00
2023-01-12T14:47:29.928Z,81.90
2023-01-12T14:52:32.568Z,82.20
2023-01-12T14:57:35.212Z,81.70
2023-01-12T15:02:39.831Z,81.60
2023-01-12T15:08:02.804Z,82.00
2023-01-12T15:13:33.170Z,82.20
2023-01-12T15:18:54.022Z,82.00
2023-01-12T15:24:15.149Z,82.80
2023-01-12T15:29:26.385Z,82.30
2023-01-12T15:34:28.199Z,82.40
2023-01-12T15:39:30.063Z,82.30
2023-01-12T15:44:31.835Z,81.90
2023-01-12T15:49:33.643Z,81.30
2023-01-12T15:54:35.488Z,82.10
2023-01-12T15:59:37.372Z,82.80
2023-01-12T16:04:43.218Z,83.00
2023-01-12T16:09:47.768Z,83.70
2023-01-12T16:14:50.124Z,85.40
2023-01-12T16:19:52.051Z,87.30
2023-01-12T16:24:55.840Z,87.70
2023-01-12T16:29:58.462Z,86.40
2023-01-12T16:35:00.364Z,86.20
2023-01-12T16:40:02.261Z,85.10
2023-01-12T16:45:04.428Z,85.10
2023-01-12T16:50:06.943Z,85.20
2023-01-12T16:55:08.887Z,87.30
2023-01-12T17:00:13.592Z,88.30
2023-01-12T17:05:15.550Z,88.20
2023-01-12T17:10:17.697Z,89.50
2023-01-12T17:15:19.543Z,89.90
2023-01-12T17:20:22.117Z,90.20
2023-01-12T17:25:24.071Z,90.60
2023-01-12T17:30:26.980Z,90.70
2023-01-12T17:35:28.920Z,90.90
2023-01-12T17:40:30.838Z,91.10
2023-01-12T17:45:33.800Z,90.90
2023-01-12T17:50:47.278Z,90.80
2023-01-12T17:55:50.402Z,91.60
2023-01-12T18:00:53.124Z,92.40
2023-01-12T18:06:18.469Z,93.50
2023-01-12T18:11:37.202Z,93.80
2023-01-12T18:16:39.597Z,94.10
2023-01-12T18:21:41.498Z,95.00
2023-01-12T18:26:43.413Z,95.80
2023-01-12T18:31:47.353Z,96.40
2023-01-12T18:36:49.218Z,96.70
2023-01-12T18:42:09.797Z,97.80
2023-01-12T18:47:32.696Z,98.60
2023-01-12T18:52:54.771Z,99.40
2023-01-12T18:57:56.680Z,99.90
2023-01-12T19:02:59.809Z,99.90
2023-01-12T19:08:25.559Z,99.90
2023-01-12T19:13:59.943Z,99.90
2023-01-12T19:19:01.839Z,99.90
2023-01-12T19:24:22.798Z,99.90
2023-01-12T19:29:25.281Z,99.90
2023-01-12T19:34:27.093Z,99.90
2023-01-12T19:39:49.464Z,99.90
2023-01-12T19:44:54.177Z,99.90
2023-01-12T19:49:55.991Z,99.90
2023-01-12T19:54:57.797Z,99.90
2023-01-12T19:59:59.628Z,99.90
2023-01-12T20:05:01.493Z,99.90
2023-01-12T20:10:05.023Z,99.90
2023-01-12T20:15:07.380Z,99.90
2023-01-12T20:20:11.426Z,99.90
2023-01-12T20:25:14.111Z,99.90
2023-01-12T20:30:36.853Z,99.90
2023-01-12T20:35:44.670Z,99.90
2023-01-12T20:40:46.799Z,99.90
2023-01-12T20:45:49.402Z,99.90
2023-01-12T20:50:51.632Z,99.90
2023-01-12T20:55:53.436Z,99.90
2023-01-12T21:00:55.350Z,99.90
2023-01-12T21:05:57.904Z,99.90
2023-01-12T21:10:59.753Z,99.90
2023-01-12T21:16:02.904Z,99.90
2023-01-12T21:21:06.053Z,99.90
2023-01-12T21:26:08.462Z,99.90
2023-01-12T21:31:11.939Z,99.90
2023-01-12T21:36:14.491Z,99.90
2023-01-12T21:41:16.452Z,99.90
2023-01-12T21:46:19.123Z,99.90
2023-01-12T21:51:21.011Z,99.90
2023-01-12T21:56:22.938Z,99.90
2023-01-12T22:01:24.891Z,99.90
2023-01-12T22:06:27.080Z,99.90
2023-01-12T22:12:36.298Z,99.90
2023-01-12T22:17:38.246Z,99.90
2023-01-12T22:22:40.364Z,99.90
2023-01-12T22:27:42.423Z,99.90
2023-01-12T22:32:47.473Z,99.90
2023-01-12T22:37:49.594Z,99.90
2023-01-12T22:43:09.968Z,99.90
2023-01-12T22:48:11.801Z,99.90
2023-01-12T22:53:13.908Z,99.90
2023-01-12T22:58:15.883Z,99.90
2023-01-12T23:03:17.890Z,99.90
2023-01-12T23:08:20.158Z,99.90
2023-01-12T23:13:22.030Z,99.90
2023-01-12T23:18:29.645Z,99.90
2023-01-12T23:23:31.539Z,99.90
2023-01-12T23:28:36.790Z,99.90
2023-01-12T23:33:39.456Z,99.90
2023-01-12T23:38:42.670Z,99.90
2023-01-12T23:43:48.431Z,99.90
2023-01-12T23:48:54.446Z,99.90
2023-01-12T23:53:59.290Z,99.90
2023-01-12T23:59:01.204Z,99.90
